CheckWX is a tool to help pilots better visualize weather data.  It is not intended as a substitute for an official pre-flight weather briefing.

05:13:37 UTC

LFPG TAF
Charles de Gaulle International Airport
Paris, France
TAF LFPG 312300Z 0100/0206 06010KT CAVOK TX26/0116Z TN11/0104Z PROB40 TEMPO 0120/0123 VRB03KT

Jun-1@
00:00 UTC

Jun-1 @ 00:00 UTC

Jun-2@
06:00 UTC

Jun-2 @ 06:00 UTC

TAF LFPG 312300Z 0100/0206 06010KT CAVOK TX26/0116Z TN11/0104Z
Wind
  • 060° at 10 KTS
Cloud Levels
  • No significant clouds

Jun-1@
20:00 UTC

Jun-1 @ 20:00 UTC

Jun-1@
23:00 UTC

Jun-1 @ 23:00 UTC

PROB40 TEMPO 0120/0123 VRB03KT

Expired

Wind
  • Variable at 3 KTS
Cloud Levels